This is the latest recevied weather packets stored in our database for station/object DL3MEB-6. If no packets are shown the sender has not sent any weather packets the latest 10 day(s).
| Time | Temp. | Humidity | Pressure | Rain* | Wind** | Luminosity | Snow |
|---|---|---|---|---|---|---|---|
| 1778079030 | 15.56° C | 73% | 1004.8 hPa | 8.13 mm | - | - | - |
| 1778078130 | 18.89° C | 64% | 1003.5 hPa | 0 mm | - | - | - |
| 1778077223 | 19.44° C | 53% | 1002.9 hPa | 0 mm | - | - | - |
| 1778076318 | 20° C | 50% | 1002.6 hPa | 0 mm | - | - | - |
| 1778075419 | 21.11° C | 49% | 1002.5 hPa | 0 mm | - | - | - |
| 1778074549 | 21.11° C | 48% | 1002.5 hPa | 0 mm | - | - | - |
| 1778074517 | 21.11° C | 48% | 1002.5 hPa | 0 mm | - | - | - |
| 1778073611 | 20.56° C | 51% | 1002.8 hPa | 0 mm | - | - | - |
| 1778072705 | 20° C | 50% | 1003 hPa | 0 mm | - | - | - |
| 1778071793 | 20.56° C | 50% | 1003.1 hPa | 0 mm | - | - | - |
| 1778070884 | 20.56° C | 49% | 1003.1 hPa | 0 mm | - | - | - |
| 1778069981 | 20.56° C | 52% | 1003.6 hPa | 0 mm | - | - | - |
| 1778069071 | 20° C | 52% | 1003.6 hPa | 0 mm | - | - | - |
| 1778068161 | 20° C | 51% | 1003.7 hPa | 0 mm | - | - | - |
| 1778067265 | 19.44° C | 50% | 1004 hPa | 0 mm | - | - | - |
| 1778067260 | 19.44° C | 50% | 1004 hPa | 0 mm | - | - | - |
| 1778066360 | 19.44° C | 51% | 1004.1 hPa | 0 mm | - | - | - |
| 1778065459 | 19.44° C | 50% | 1004.1 hPa | 0 mm | - | - | - |
| 1778064553 | 18.89° C | 49% | 1004.6 hPa | 0 mm | - | - | - |
| 1778063642 | 18.89° C | 55% | 1004.8 hPa | 0 mm | - | - | - |
| 1778062737 | 18.89° C | 54% | 1004.8 hPa | 0 mm | - | - | - |
| 1778061838 | 18.89° C | 55% | 1005.1 hPa | 0 mm | - | - | - |
| 1778060931 | 18.33° C | 58% | 1004.9 hPa | 0 mm | - | - | - |
| 1778060020 | 17.78° C | 58% | 1005 hPa | 0 mm | - | - | - |
| 1778059114 | 17.78° C | 58% | 1005 hPa | 0 mm | - | - | - |
* Rain latest hour (hover to see other rain measurements)
** Current wind speed in m/s (hover to see current wind gust speed)